Time;durP1;ratioP1;P1;durP2;ratioP2;P2;SDS_P1;SDS_P2;PMS_P1;PMS_P2;Temp;Humidity;BMP_temperature;BMP_pressure;BME280_temperature;BME280_humidity;BME280_pressure;Samples;Min_cycle;Max_cycle;Signal;HPM_P1;HPM_P2
2021/08/06 00:01:20;;;;;;;0.80;0.70;;;;;;;18.89;100.00;22539.81;5053685;28;20529;-73
2021/08/06 00:03:50;;;;;;;0.80;0.70;;;;;;;18.89;100.00;26703.53;5056105;28;20420;-72
2021/08/06 00:06:38;;;;;;;0.70;0.70;;;;;;;18.87;100.00;31025.97;5056010;28;20408;-72
2021/08/06 00:09:06;;;;;;;0.80;0.70;;;;;;;18.96;100.00;33706.25;5054264;28;20461;-73
2021/08/06 00:11:36;;;;;;;0.80;0.70;;;;;;;19.04;100.00;34971.00;5052408;28;20417;-73
2021/08/06 00:14:06;;;;;;;0.80;0.70;;;;;;;19.06;100.00;35383.19;5034650;28;20961;-73
2021/08/06 00:16:35;;;;;;;0.80;0.80;;;;;;;19.06;100.00;35664.34;5034683;28;20515;-73
2021/08/06 00:19:04;;;;;;;0.80;0.70;;;;;;;19.11;100.00;35541.06;5034004;28;20477;-72
2021/08/06 00:21:32;;;;;;;0.70;0.70;;;;;;;19.04;100.00;35892.91;5044305;28;20490;-72
2021/08/06 00:24:19;;;;;;;0.80;0.70;;;;;;;19.08;100.00;36112.50;5054936;28;20938;-73
2021/08/06 00:26:50;;;;;;;0.80;0.70;;;;;;;19.19;100.00;35063.28;5053943;28;20480;-73
2021/08/06 00:29:22;;;;;;;0.70;0.60;;;;;;;19.17;100.00;31657.28;5037502;28;20850;-72
2021/08/06 00:31:49;;;;;;;0.70;0.60;;;;;;;19.25;100.00;28891.88;5054257;28;20430;-72
2021/08/06 00:34:18;;;;;;;0.80;0.80;;;;;;;19.21;100.00;26763.28;5053986;28;20528;-73
2021/08/06 00:36:50;;;;;;;0.70;0.60;;;;;;;19.15;100.00;24955.16;5054215;28;20443;-72
2021/08/06 00:39:19;;;;;;;0.80;0.70;;;;;;;19.11;100.00;23825.78;5053430;28;20444;-72
2021/08/06 00:41:51;;;;;;;0.80;0.70;;;;;;;18.98;100.00;24254.91;5049632;28;20494;-73
2021/08/06 00:44:21;;;;;;;0.70;0.70;;;;;;;18.90;100.00;26737.75;5033961;28;20472;-72
2021/08/06 00:46:50;;;;;;;0.70;0.60;;;;;;;18.90;100.00;29257.13;5033813;28;20851;-73
2021/08/06 00:49:20;;;;;;;0.70;0.60;;;;;;;18.88;100.00;32050.28;5034235;28;20474;-72
2021/08/06 00:51:51;;;;;;;0.70;0.60;;;;;;;18.89;100.00;34563.84;5044867;28;20473;-72
2021/08/06 00:54:23;;;;;;;0.70;0.63;;;;;;;18.93;100.00;36727.56;5053368;28;20482;-72
2021/08/06 00:57:12;;;;;;;0.80;0.70;;;;;;;18.88;100.00;37011.22;5053172;28;20857;-73
2021/08/06 00:59:45;;;;;;;0.70;0.63;;;;;;;18.90;100.00;37293.81;5037622;28;20994;-72
2021/08/06 01:02:19;;;;;;;0.70;0.70;;;;;;;18.88;100.00;38501.56;5036674;28;20526;-73
2021/08/06 01:04:55;;;;;;;0.80;0.80;;;;;;;18.80;100.00;38995.00;5052751;28;20442;-72
2021/08/06 01:07:34;;;;;;;0.73;0.67;;;;;;;18.82;100.00;40472.31;5037230;28;20867;-72
2021/08/06 01:10:06;;;;;;;0.70;0.60;;;;;;;18.88;100.00;40207.44;5036495;28;20489;-73
2021/08/06 01:12:51;;;;;;;0.70;0.70;;;;;;;18.99;100.00;38173.28;5026307;28;20546;-73
2021/08/06 01:15:41;;;;;;;0.80;0.70;;;;;;;18.99;100.00;35592.63;5038291;28;20513;-72
2021/08/06 01:18:15;;;;;;;0.80;0.80;;;;;;;19.01;100.00;33154.81;5037522;28;20527;-72
2021/08/06 01:20:49;;;;;;;0.70;0.63;;;;;;;18.98;100.00;31452.69;5053223;28;20471;-73
2021/08/06 01:23:21;;;;;;;0.70;0.70;;;;;;;19.21;100.00;28139.59;5053589;28;21021;-72
2021/08/06 01:25:54;;;;;;;0.80;0.73;;;;;;;19.20;100.00;22488.88;5052894;28;20432;-72
2021/08/06 01:28:44;;;;;;;0.70;0.70;;;;;;;19.20;100.00;17118.44;5052718;28;20420;-72
2021/08/06 01:31:14;;;;;;;0.70;0.60;;;;;;;19.10;100.00;13143.97;5037270;28;20426;-72
2021/08/06 01:33:46;;;;;;;0.80;0.70;;;;;;;19.10;100.00;10228.44;5033202;28;20781;-73
2021/08/06 01:36:21;;;;;;;0.70;0.70;;;;;;;19.11;100.00;6962.31;5033247;28;20444;-72
2021/08/06 01:38:51;;;;;;;0.80;0.70;;;;;;;19.04;100.00;4266.13;5016718;28;20994;-71
2021/08/06 01:41:32;;;;;;;0.80;0.80;;;;;;;19.10;100.00;1666.06;5033047;28;20522;-72
2021/08/06 01:44:07;;;;;;;0.70;0.70;;;;;;;19.04;100.00;-1272.78;5052688;28;20869;-73
2021/08/06 01:46:45;;;;;;;0.80;0.80;;;;;;;19.01;100.00;-2863.56;5030135;28;20457;-72
2021/08/06 01:49:20;;;;;;;0.80;0.70;;;;;;;19.06;100.00;-4256.94;5034417;28;20417;-72
2021/08/06 01:51:51;;;;;;;0.87;0.87;;;;;;;18.99;100.00;-5751.69;5043476;28;20432;-72
2021/08/06 01:54:21;;;;;;;0.80;0.70;;;;;;;18.99;100.00;-7816.72;5019539;28;20460;-72
2021/08/06 01:56:50;;;;;;;0.80;0.73;;;;;;;18.97;100.00;-8815.44;5032331;28;20532;-71
2021/08/06 01:59:18;;;;;;;0.80;0.70;;;;;;;18.98;100.00;-10415.09;5052349;28;20787;-72
2021/08/06 02:01:52;;;;;;;0.70;0.60;;;;;;;19.01;100.00;-12742.19;5052466;28;20474;-71
2021/08/06 02:04:20;;;;;;;0.70;0.63;;;;;;;19.07;100.00;-14236.59;5052443;28;20435;-73
2021/08/06 02:07:02;;;;;;;0.70;0.70;;;;;;;19.03;100.00;-15825.47;5051866;28;20443;-72
2021/08/06 02:09:32;;;;;;;0.70;0.60;;;;;;;19.07;100.00;-16469.34;5035881;28;20463;-71
2021/08/06 02:12:07;;;;;;;0.77;0.70;;;;;;;19.08;100.00;-18162.09;5030261;28;20450;-71
2021/08/06 02:14:50;;;;;;;0.70;0.63;;;;;;;19.18;100.00;-19726.94;5032237;28;20826;-72
2021/08/06 02:17:22;;;;;;;0.70;0.67;;;;;;;19.17;100.00;-20633.22;5032429;28;20919;-72
2021/08/06 02:19:54;;;;;;;0.70;0.70;;;;;;;19.23;100.00;-21135.19;5032335;28;20448;-72
2021/08/06 02:22:25;;;;;;;0.70;0.70;;;;;;;19.16;100.00;-21201.19;5047218;28;20510;-73
2021/08/06 02:24:56;;;;;;;0.80;0.70;;;;;;;19.26;100.00;-21203.94;5035407;28;20453;-72
2021/08/06 02:27:33;;;;;;;0.70;0.60;;;;;;;19.13;100.00;-21200.38;5051863;28;20448;-72
2021/08/06 02:30:06;;;;;;;0.70;0.70;;;;;;;18.96;100.00;-20168.31;5051994;28;20455;-71
2021/08/06 02:32:40;;;;;;;0.70;0.67;;;;;;;18.54;100.00;-13559.69;5025035;28;20521;-71
2021/08/06 02:35:10;;;;;;;0.70;0.70;;;;;;;18.35;100.00;-1375.63;5031536;28;20502;-71
2021/08/06 02:37:44;;;;;;;0.70;0.70;;;;;;;18.22;100.00;17792.81;5031662;28;20935;-72
2021/08/06 02:40:14;;;;;;;0.77;0.70;;;;;;;18.18;100.00;37741.22;5015774;28;20466;-71
2021/08/06 02:42:43;;;;;;;0.70;0.70;;;;;;;18.08;100.00;54630.66;5031608;28;20479;-71
2021/08/06 02:45:14;;;;;;;0.70;0.70;;;;;;;18.08;100.00;64935.78;5032770;28;20413;-71
2021/08/06 02:47:43;;;;;;;0.80;0.77;;;;;;;17.97;100.00;71254.22;4999939;28;20451;-71
2021/08/06 02:50:13;;;;;;;0.70;0.70;;;;;;;17.96;100.00;75590.31;5015647;28;20437;-71
2021/08/06 02:52:41;;;;;;;0.70;0.60;;;;;;;17.99;100.00;78266.66;5031612;28;20818;-72
2021/08/06 02:55:09;;;;;;;0.70;0.63;;;;;;;17.98;100.00;79602.25;5048229;28;20447;-72
2021/08/06 02:57:38;;;;;;;0.80;0.70;;;;;;;17.92;100.00;80931.28;5048080;28;20510;-71
2021/08/06 03:00:09;;;;;;;0.80;0.73;;;;;;;17.86;100.00;81258.66;5048437;28;20444;-72
2021/08/06 03:02:37;;;;;;;0.80;0.70;;;;;;;17.80;100.00;81583.88;5031194;28;20478;-72
2021/08/06 03:05:10;;;;;;;0.70;0.70;;;;;;;17.79;100.00;80914.44;5013787;28;20444;-72
2021/08/06 03:07:39;;;;;;;0.70;0.60;;;;;;;17.74;100.00;81241.00;5034923;28;20444;-71
2021/08/06 03:10:10;;;;;;;0.80;0.73;;;;;;;17.68;100.00;79896.28;5033060;28;20457;-73
2021/08/06 03:12:40;;;;;;;0.80;0.77;;;;;;;17.75;100.00;78569.44;5030868;28;20504;-72
2021/08/06 03:15:11;;;;;;;0.70;0.70;;;;;;;17.73;100.00;76896.72;5051559;28;20481;-71
2021/08/06 03:17:41;;;;;;;0.80;0.70;;;;;;;17.79;100.00;75234.84;5051328;28;20456;-71
2021/08/06 03:20:15;;;;;;;0.80;0.70;;;;;;;17.76;100.00;73229.56;5019030;28;20465;-71
2021/08/06 03:22:47;;;;;;;0.70;0.70;;;;;;;17.85;100.00;70905.88;5032600;28;20864;-71
2021/08/06 03:25:15;;;;;;;0.80;0.70;;;;;;;17.85;100.00;68906.13;5047726;28;20536;-71
2021/08/06 03:27:44;;;;;;;0.80;0.80;;;;;;;17.85;100.00;66574.59;5038791;28;20479;-71
2021/08/06 03:30:15;;;;;;;0.70;0.60;;;;;;;17.84;100.00;64244.06;5039076;28;20454;-71
2021/08/06 03:32:44;;;;;;;0.70;0.60;;;;;;;17.87;100.00;62250.97;5038955;28;20427;-72
2021/08/06 03:35:13;;;;;;;0.70;0.60;;;;;;;17.80;100.00;59251.97;5055512;28;20434;-72
2021/08/06 03:37:43;;;;;;;0.70;0.60;;;;;;;17.82;100.00;57925.38;5038655;28;20445;-72
2021/08/06 03:40:14;;;;;;;0.80;0.80;;;;;;;17.76;100.00;55927.91;5038496;28;20568;-71
2021/08/06 03:42:46;;;;;;;0.80;0.80;;;;;;;17.70;100.00;53599.81;5026949;28;20479;-72
2021/08/06 03:45:16;;;;;;;0.70;0.60;;;;;;;17.68;100.00;51277.47;5034997;28;20859;-71
2021/08/06 03:47:45;;;;;;;0.80;0.80;;;;;;;17.69;100.00;49290.63;5034981;28;20446;-72
2021/08/06 03:50:14;;;;;;;0.70;0.70;;;;;;;17.70;100.00;46973.50;5034918;28;20839;-71
2021/08/06 03:52:42;;;;;;;0.70;0.60;;;;;;;17.64;100.00;44653.13;5052912;28;20543;-73
2021/08/06 03:55:10;;;;;;;0.80;0.70;;;;;;;17.73;100.00;43006.56;4999410;28;20448;-72
2021/08/06 03:57:49;;;;;;;0.70;0.60;;;;;;;17.73;100.00;41684.47;5018332;28;20422;-72
2021/08/06 04:00:19;;;;;;;0.80;0.70;;;;;;;17.72;100.00;40031.81;5034859;28;20492;-72
2021/08/06 04:02:51;;;;;;;0.70;0.70;;;;;;;17.74;100.00;38382.50;5034550;28;20472;-72
2021/08/06 04:05:21;;;;;;;0.80;0.70;;;;;;;17.67;100.00;36727.47;5034742;28;20438;-71
2021/08/06 04:07:50;;;;;;;0.80;0.70;;;;;;;17.70;100.00;34750.28;5034561;28;20519;-71
2021/08/06 04:10:22;;;;;;;0.80;0.80;;;;;;;17.73;100.00;32912.84;5018382;28;20479;-72
2021/08/06 04:12:51;;;;;;;0.70;0.70;;;;;;;17.76;100.00;31606.75;5046697;28;20446;-72
2021/08/06 04:15:20;;;;;;;0.70;0.70;;;;;;;17.75;100.00;30227.03;5054148;28;20941;-73
2021/08/06 04:17:48;;;;;;;0.70;0.70;;;;;;;17.69;100.00;28973.22;5038306;28;20445;-72
2021/08/06 04:20:17;;;;;;;0.70;0.60;;;;;;;17.73;100.00;28070.47;5038118;28;20475;-72
2021/08/06 04:22:45;;;;;;;0.70;0.70;;;;;;;17.62;100.00;26602.16;5019236;28;21054;-72
2021/08/06 04:25:13;;;;;;;0.80;0.80;;;;;;;17.65;100.00;25182.84;5033691;28;20453;-72
2021/08/06 04:27:41;;;;;;;0.70;0.67;;;;;;;17.71;100.00;24029.91;5034093;28;20438;-71
2021/08/06 04:30:12;;;;;;;0.80;0.80;;;;;;;17.77;100.00;23236.59;5034439;28;20955;-71
2021/08/06 04:32:42;;;;;;;0.80;0.77;;;;;;;17.77;100.00;22522.84;5053323;28;20462;-72
2021/08/06 04:35:11;;;;;;;0.70;0.70;;;;;;;17.73;100.00;21394.16;5036666;28;20446;-71
2021/08/06 04:37:46;;;;;;;0.77;0.70;;;;;;;17.79;100.00;20419.25;5037694;28;21257;-72
2021/08/06 04:40:16;;;;;;;0.80;0.80;;;;;;;17.82;100.00;19476.38;5053948;28;20443;-71
2021/08/06 04:42:44;;;;;;;0.70;0.67;;;;;;;17.82;100.00;18676.19;5025984;28;20480;-72
2021/08/06 04:45:13;;;;;;;0.70;0.70;;;;;;;17.75;100.00;17878.78;5033958;28;20513;-71
2021/08/06 04:47:45;;;;;;;0.70;0.70;;;;;;;17.73;100.00;17288.50;5033854;28;20445;-71
2021/08/06 04:50:16;;;;;;;0.70;0.70;;;;;;;17.79;100.00;17193.22;5033914;28;20451;-71
2021/08/06 04:52:45;;;;;;;0.70;0.60;;;;;;;17.77;100.00;16833.56;5035938;28;20476;-71
2021/08/06 04:55:13;;;;;;;0.70;0.63;;;;;;;17.92;100.00;16592.47;5037613;28;20723;-71
2021/08/06 04:57:45;;;;;;;0.70;0.67;;;;;;;17.95;100.00;16803.69;5037099;28;21005;-71
2021/08/06 05:00:17;;;;;;;0.70;0.60;;;;;;;17.90;100.00;16942.97;5034151;28;20455;-71
2021/08/06 05:02:48;;;;;;;0.70;0.70;;;;;;;17.93;100.00;17382.56;5033369;28;20471;-71
2021/08/06 05:05:16;;;;;;;0.80;0.70;;;;;;;17.96;100.00;17737.28;5024063;28;20557;-72
2021/08/06 05:07:49;;;;;;;0.70;0.60;;;;;;;17.96;100.00;17962.94;5053003;28;20486;-71
2021/08/06 05:10:20;;;;;;;0.70;0.70;;;;;;;17.92;100.00;18074.31;5035784;28;20455;-72
2021/08/06 05:12:49;;;;;;;0.70;0.60;;;;;;;17.93;100.00;18541.44;5029132;28;20894;-71
2021/08/06 05:15:19;;;;;;;0.70;0.70;;;;;;;17.89;100.00;18673.31;5053139;28;20446;-71
2021/08/06 05:17:49;;;;;;;0.70;0.70;;;;;;;17.88;100.00;18662.69;5036447;28;20471;-71
2021/08/06 05:20:18;;;;;;;0.80;0.80;;;;;;;17.91;100.00;18699.91;5036692;28;20456;-72
2021/08/06 05:22:46;;;;;;;0.70;0.70;;;;;;;17.89;100.00;18970.81;5018115;28;20492;-72
2021/08/06 05:25:20;;;;;;;0.80;0.73;;;;;;;18.00;100.00;19144.31;5047343;28;20865;-71
2021/08/06 05:28:09;;;;;;;0.70;0.70;;;;;;;18.05;100.00;19300.19;5053953;28;20778;-71
2021/08/06 05:30:38;;;;;;;0.70;0.70;;;;;;;18.09;100.00;19637.88;5052937;28;20443;-72
2021/08/06 05:33:08;;;;;;;0.80;0.73;;;;;;;18.02;100.00;19650.75;5052657;28;20429;-71
2021/08/06 05:35:38;;;;;;;0.70;0.60;;;;;;;18.03;100.00;19227.56;5052734;28;20913;-72
2021/08/06 05:38:06;;;;;;;0.70;0.67;;;;;;;17.97;100.00;19448.66;5020521;28;20471;-71
2021/08/06 05:40:34;;;;;;;0.70;0.60;;;;;;;18.01;100.00;19593.91;5036391;28;20443;-72
2021/08/06 05:43:06;;;;;;;0.80;0.80;;;;;;;17.96;100.00;19291.59;5037783;28;20988;-71
2021/08/06 05:45:34;;;;;;;0.80;0.73;;;;;;;17.97;100.00;19215.00;5032620;28;20515;-72
2021/08/06 05:48:03;;;;;;;0.70;0.70;;;;;;;18.01;100.00;18849.88;5032467;28;20449;-72
2021/08/06 05:50:41;;;;;;;0.70;0.60;;;;;;;17.99;100.00;18610.38;5033484;28;20452;-71
2021/08/06 05:53:17;;;;;;;0.70;0.70;;;;;;;18.02;100.00;18080.56;5052302;28;20456;-71
2021/08/06 05:55:52;;;;;;;0.80;0.80;;;;;;;18.03;100.00;17780.84;5037353;28;20454;-71
2021/08/06 05:58:21;;;;;;;0.70;0.60;;;;;;;18.00;100.00;17041.28;5052444;28;20529;-71
2021/08/06 06:00:51;;;;;;;0.70;0.67;;;;;;;18.09;100.00;16595.72;5022008;28;20786;-72
2021/08/06 06:03:34;;;;;;;0.70;0.70;;;;;;;18.14;100.00;16104.97;5032592;28;20955;-72
2021/08/06 06:06:19;;;;;;;0.70;0.70;;;;;;;18.06;100.00;15215.69;5018207;28;20565;-72
2021/08/06 06:08:47;;;;;;;0.70;0.70;;;;;;;18.13;100.00;14554.16;5015982;28;20445;-71
2021/08/06 06:11:15;;;;;;;0.70;0.67;;;;;;;18.17;100.00;13571.47;5033019;28;20432;-71
2021/08/06 06:13:44;;;;;;;0.70;0.70;;;;;;;18.16;100.00;12664.41;5035785;28;20481;-71
2021/08/06 06:16:13;;;;;;;0.70;0.60;;;;;;;18.35;100.00;12111.09;5051780;28;20963;-72
2021/08/06 06:18:43;;;;;;;0.80;0.70;;;;;;;18.38;100.00;11597.06;5019633;28;20818;-71
2021/08/06 06:21:11;;;;;;;0.70;0.70;;;;;;;18.59;100.00;11620.31;5046810;28;20425;-71
2021/08/06 06:23:43;;;;;;;0.70;0.70;;;;;;;18.65;100.00;11463.00;5050380;28;20476;-72
2021/08/06 06:26:12;;;;;;;0.70;0.70;;;;;;;18.60;100.00;11389.97;5031959;28;20820;-71
2021/08/06 06:28:40;;;;;;;0.80;0.70;;;;;;;18.64;100.00;11826.59;5015723;28;20816;-71
2021/08/06 06:31:08;;;;;;;0.70;0.70;;;;;;;18.75;100.00;12044.78;5016080;28;21001;-73
2021/08/06 06:33:37;;;;;;;0.70;0.70;;;;;;;18.74;100.00;11957.38;5032109;28;20455;-71
2021/08/06 06:36:06;;;;;;;0.70;0.70;;;;;;;18.78;100.00;12555.72;5031973;28;20439;-71
2021/08/06 06:38:34;;;;;;;0.70;0.70;;;;;;;18.70;100.00;12735.50;5031922;28;20885;-71
2021/08/06 06:41:05;;;;;;;0.70;0.70;;;;;;;18.67;100.00;12949.97;5031881;28;20547;-71
2021/08/06 06:43:36;;;;;;;0.70;0.63;;;;;;;18.76;100.00;13085.69;5015901;28;20471;-71
2021/08/06 06:46:05;;;;;;;0.70;0.67;;;;;;;18.88;100.00;13627.53;5015340;28;20453;-71
2021/08/06 06:48:34;;;;;;;0.70;0.60;;;;;;;18.82;100.00;13728.66;5031714;28;20531;-71
2021/08/06 06:51:08;;;;;;;0.80;0.70;;;;;;;18.95;100.00;14404.34;5016577;28;20546;-71
2021/08/06 06:53:39;;;;;;;0.70;0.70;;;;;;;18.93;100.00;14691.09;5034143;28;20600;-71
2021/08/06 06:56:08;;;;;;;0.70;0.70;;;;;;;19.15;100.00;15411.53;5051305;28;20461;-71
2021/08/06 06:58:37;;;;;;;0.70;0.70;;;;;;;19.36;100.00;16106.31;5052013;28;20860;-71
2021/08/06 07:01:06;;;;;;;0.80;0.80;;;;;;;19.47;100.00;16803.72;5054133;28;20503;-71
2021/08/06 07:03:35;;;;;;;0.70;0.70;;;;;;;19.65;100.00;17815.13;5039369;28;21003;-72
2021/08/06 07:06:03;;;;;;;0.70;0.70;;;;;;;19.64;100.00;18689.09;5055818;28;20484;-72
2021/08/06 07:08:31;;;;;;;0.70;0.70;;;;;;;19.66;100.00;19422.94;5039681;28;20876;-71
2021/08/06 07:11:00;;;;;;;1.27;1.17;;;;;;;19.85;100.00;20271.50;5039191;28;20444;-71
2021/08/06 07:13:30;;;;;;;0.70;0.60;;;;;;;20.04;100.00;21043.91;5039223;28;20843;-71
2021/08/06 07:15:57;;;;;;;0.80;0.70;;;;;;;19.85;100.00;21123.56;5055504;28;20446;-72
2021/08/06 07:18:26;;;;;;;0.70;0.70;;;;;;;19.98;100.00;22532.94;5038967;28;20440;-71
2021/08/06 07:20:54;;;;;;;0.70;0.70;;;;;;;19.97;100.00;22908.63;5035553;28;20440;-72
2021/08/06 07:23:22;;;;;;;0.70;0.70;;;;;;;20.28;100.00;24020.28;5038634;28;20472;-71
2021/08/06 07:25:50;;;;;;;0.70;0.60;;;;;;;20.28;100.00;24510.50;5039267;28;20797;-72
2021/08/06 07:28:18;;;;;;;0.70;0.70;;;;;;;20.52;100.00;25161.00;5038806;28;20428;-71
2021/08/06 07:30:48;;;;;;;0.70;0.70;;;;;;;20.50;100.00;24455.91;5038497;28;20455;-71
2021/08/06 07:33:16;;;;;;;0.70;0.60;;;;;;;20.26;100.00;23488.47;5020217;28;20465;-71
2021/08/06 07:35:45;;;;;;;0.70;0.60;;;;;;;20.41;100.00;23528.34;5035572;28;20433;-71
2021/08/06 07:38:12;;;;;;;0.70;0.60;;;;;;;20.59;100.00;22845.31;5035212;28;20900;-72
2021/08/06 07:40:42;;;;;;;0.70;0.70;;;;;;;20.75;100.00;20057.03;5035535;28;20483;-72
2021/08/06 07:43:12;;;;;;;0.80;0.70;;;;;;;21.01;100.00;17790.94;5018641;28;20464;-71
2021/08/06 07:45:43;;;;;;;0.80;0.77;;;;;;;20.71;100.00;9800.81;5018565;28;20452;-72
2021/08/06 07:48:14;;;;;;;0.70;0.60;;;;;;;20.90;100.00;3270.69;5034824;28;20528;-71
2021/08/06 07:50:42;;;;;;;0.70;0.70;;;;;;;20.77;100.00;-7307.66;5036723;28;20437;-72
2021/08/06 07:53:11;;;;;;;0.80;0.70;;;;;;;20.67;100.00;-16671.00;5055114;28;20447;-71
2021/08/06 07:55:38;;;;;;;0.70;0.70;;;;;;;20.66;100.00;-21241.38;5053021;28;21035;-71
2021/08/06 07:58:06;;;;;;;0.70;0.63;;;;;;;20.70;100.00;-21242.34;5036340;28;20430;-71
2021/08/06 08:00:35;;;;;;;0.70;0.60;;;;;;;21.00;100.00;-21250.38;5054157;28;21003;-71
2021/08/06 08:03:04;;;;;;;0.80;0.70;;;;;;;20.88;100.00;-21247.09;5054520;28;20453;-71
2021/08/06 08:05:37;;;;;;;0.70;0.70;;;;;;;21.10;100.00;-21253.09;5054588;28;20422;-72
2021/08/06 08:08:09;;;;;;;0.73;0.70;;;;;;;20.67;100.00;-21241.50;5038577;28;20485;-71
2021/08/06 08:10:38;;;;;;;0.70;0.60;;;;;;;20.53;100.00;-21237.81;5022027;28;20776;-71
2021/08/06 08:13:19;;;;;;;0.80;0.70;;;;;;;20.73;100.00;-21243.28;5023726;28;20453;-71
2021/08/06 08:15:52;;;;;;;0.70;0.60;;;;;;;21.06;100.00;-21252.03;5034340;28;20424;-72
2021/08/06 08:18:21;;;;;;;0.70;0.70;;;;;;;21.59;100.00;-21266.19;5034118;28;20801;-71
2021/08/06 08:20:50;;;;;;;0.70;0.70;;;;;;;21.77;100.00;-21270.97;5036617;28;20427;-71
2021/08/06 08:23:20;;;;;;;0.70;0.60;;;;;;;21.41;100.00;-21261.44;5053255;28;20522;-72
2021/08/06 08:25:54;;;;;;;0.80;0.70;;;;;;;21.11;100.00;-21253.38;5033690;28;20463;-72
2021/08/06 08:28:25;;;;;;;0.80;0.70;;;;;;;21.01;100.00;-21250.50;5034447;28;20778;-71
2021/08/06 08:30:53;;;;;;;0.70;0.60;;;;;;;20.75;100.00;-21243.81;5034627;28;20427;-71
2021/08/06 08:33:25;;;;;;;0.80;0.70;;;;;;;20.68;100.00;-21241.91;5018821;28;20403;-71
2021/08/06 08:35:55;;;;;;;0.80;0.70;;;;;;;20.61;100.00;-21239.88;5034275;28;20552;-71
2021/08/06 08:38:23;;;;;;;0.80;0.70;;;;;;;20.50;100.00;-21237.00;5033879;28;20493;-71
2021/08/06 08:40:51;;;;;;;0.80;0.70;;;;;;;20.56;100.00;-21238.66;5033657;28;20400;-72
2021/08/06 08:43:19;;;;;;;0.70;0.63;;;;;;;20.57;100.00;-21238.91;5017349;28;20567;-73
2021/08/06 08:45:47;;;;;;;0.80;0.70;;;;;;;20.72;100.00;-21242.88;5034050;28;20423;-72
2021/08/06 08:48:18;;;;;;;0.70;0.60;;;;;;;19.96;100.00;-21222.66;5017820;28;20412;-71
2021/08/06 08:50:45;;;;;;;0.80;0.73;;;;;;;19.37;100.00;-21206.81;5051140;28;20433;-71
2021/08/06 08:53:14;;;;;;;0.80;0.70;;;;;;;18.72;100.00;-21189.44;5018906;28;20452;-73
2021/08/06 08:55:41;;;;;;;0.73;0.70;;;;;;;18.78;100.00;-21190.94;5033818;28;20488;-72
2021/08/06 08:58:11;;;;;;;0.70;0.70;;;;;;;18.85;100.00;-21192.84;5053059;28;20451;-71
2021/08/06 09:00:41;;;;;;;0.80;0.70;;;;;;;19.27;100.00;-17930.09;5037511;28;20443;-72
2021/08/06 09:03:38;;;;;;;0.70;0.70;;;;;;;19.77;100.00;-9316.00;5037199;28;20475;-72
2021/08/06 09:06:09;;;;;;;0.73;0.70;;;;;;;19.79;100.00;-6177.34;5036040;28;20834;-71
2021/08/06 09:08:39;;;;;;;0.70;0.60;;;;;;;19.74;100.00;-6039.34;5033401;28;20461;-71
2021/08/06 09:11:28;;;;;;;0.70;0.70;;;;;;;19.69;100.00;-5393.28;5033139;28;20806;-72
2021/08/06 09:14:24;;;;;;;0.70;0.70;;;;;;;19.73;100.00;-1747.47;5033732;28;20423;-71
2021/08/06 09:17:05;;;;;;;0.80;0.70;;;;;;;19.68;100.00;259.50;5033232;28;20500;-72
2021/08/06 09:19:58;;;;;;;0.80;0.70;;;;;;;19.77;100.00;-4913.28;5034798;28;20408;-71
2021/08/06 09:22:40;;;;;;;0.80;0.80;;;;;;;19.97;100.00;-6479.22;5050020;28;20448;-71
2021/08/06 09:25:12;;;;;;;0.80;0.70;;;;;;;19.65;100.00;-7417.25;5049784;28;20980;-72
2021/08/06 09:27:44;;;;;;;0.80;0.70;;;;;;;19.76;100.00;-6452.97;5036997;28;20451;-71
2021/08/06 09:30:14;;;;;;;0.80;0.70;;;;;;;20.30;100.00;-9759.16;5036677;28;20471;-72
2021/08/06 09:32:50;;;;;;;0.80;0.70;;;;;;;20.51;100.00;-14435.16;5036655;28;20569;-72
2021/08/06 09:35:20;;;;;;;0.80;0.80;;;;;;;21.61;100.00;-15652.84;5036405;28;20459;-72
2021/08/06 09:38:00;;;;;;;0.70;0.60;;;;;;;22.16;100.00;-21281.34;5054279;28;20543;-71
2021/08/06 09:40:35;;;;;;;0.70;0.60;;;;;;;22.39;100.00;-21287.47;5052610;28;20428;-71
2021/08/06 09:43:05;;;;;;;0.70;0.60;;;;;;;23.17;100.00;-21308.28;5022277;28;20986;-72
2021/08/06 09:45:35;;;;;;;0.70;0.60;;;;;;;23.60;100.00;-21319.69;5032892;28;20465;-72
2021/08/06 09:48:03;;;;;;;0.70;0.60;;;;;;;25.09;100.00;-21359.22;5034158;28;20520;-72
2021/08/06 09:50:35;;;;;;;0.70;0.50;;;;;;;26.62;100.00;-21399.88;5032521;28;20455;-71
2021/08/06 09:53:04;;;;;;;0.70;0.60;;;;;;;26.20;100.00;-21388.75;5032784;28;20441;-71
2021/08/06 09:55:35;;;;;;;0.70;0.50;;;;;;;25.10;100.00;-21359.63;5051806;28;20510;-72
2021/08/06 09:58:06;;;;;;;0.70;0.50;;;;;;;24.74;100.00;-21350.00;5037390;28;20894;-71
2021/08/06 10:00:39;;;;;;;0.70;0.50;;;;;;;24.97;100.00;-21356.25;5033691;28;20414;-72
2021/08/06 10:03:07;;;;;;;0.70;0.50;;;;;;;25.12;100.00;-21360.19;5032661;28;20437;-71
2021/08/06 10:05:37;;;;;;;0.70;0.50;;;;;;;26.13;100.00;-21387.00;5032699;28;20475;-71
2021/08/06 10:08:05;;;;;;;0.70;0.50;;;;;;;27.14;100.00;-21413.66;5016024;28;20445;-72
2021/08/06 10:10:36;;;;;;;0.70;0.50;;;;;;;27.07;100.00;-21411.91;5016107;28;20495;-72
2021/08/06 10:13:08;;;;;;;0.70;0.50;;;;;;;27.19;100.00;-21415.00;5046897;28;20874;-72
2021/08/06 10:15:37;;;;;;;0.70;0.50;;;;;;;27.81;100.00;-21431.50;5051974;28;20463;-72
2021/08/06 10:18:06;;;;;;;0.70;0.50;;;;;;;28.67;100.00;-21454.03;5052490;28;20459;-72
2021/08/06 10:20:35;;;;;;;0.70;0.50;;;;;;;29.10;100.00;-21465.50;5035918;28;20458;-72
2021/08/06 10:23:05;;;;;;;0.70;0.50;;;;;;;28.78;100.00;-21457.13;5052320;28;20835;-72
2021/08/06 10:25:35;;;;;;;0.70;0.50;;;;;;;27.79;100.00;-21430.97;5050545;28;20455;-72
2021/08/06 10:28:05;;;;;;;0.70;0.50;;;;;;;27.13;100.00;-21413.53;5052396;28;20448;-72
2021/08/06 10:30:35;;;;;;;0.73;0.50;;;;;;;25.82;100.00;-21378.75;5035392;28;20497;-72
2021/08/06 10:33:23;;;;;;;0.70;0.50;;;;;;;24.51;100.00;-21344.03;5051645;28;20437;-71
2021/08/06 10:35:54;;;;;;;0.70;0.50;;;;;;;24.49;100.00;-21343.47;5052032;28;20918;-71
2021/08/06 10:38:35;;;;;;;0.70;0.60;;;;;;;23.62;100.00;-21320.25;5035943;28;20559;-72
2021/08/06 10:41:23;;;;;;;0.77;0.60;;;;;;;24.95;100.00;-21355.56;5034860;28;20440;-72
2021/08/06 10:44:04;;;;;;;0.70;0.60;;;;;;;24.61;100.00;-21346.59;5016054;28;20468;-72
2021/08/06 10:46:57;;;;;;;0.70;0.60;;;;;;;24.59;100.00;-21346.19;5051928;28;20428;-72
2021/08/06 10:49:26;;;;;;;0.70;0.60;;;;;;;23.82;100.00;-21325.56;5035229;28;20542;-71
2021/08/06 10:52:12;;;;;;;0.70;0.50;;;;;;;24.57;100.00;-21345.66;5032889;28;20487;-72
2021/08/06 10:54:47;;;;;;;1.10;1.00;;;;;;;24.29;100.00;-21338.03;5036794;28;20529;-71
2021/08/06 10:57:29;;;;;;;0.80;0.60;;;;;;;24.49;100.00;-21343.47;5051853;28;20428;-72
2021/08/06 11:00:01;;;;;;;0.80;0.70;;;;;;;23.90;100.00;-21327.72;5035430;28;20794;-71
2021/08/06 11:02:54;;;;;;;0.80;0.60;;;;;;;24.25;100.00;-21336.97;5051672;28;20426;-72
2021/08/06 11:05:44;;;;;;;0.70;0.50;;;;;;;24.62;100.00;-21346.88;5051760;28;20468;-71
2021/08/06 11:08:55;;;;;;;0.80;0.70;;;;;;;24.06;100.00;-21332.06;5051912;28;20551;-73
2021/08/06 11:11:52;;;;;;;0.80;0.60;;;;;;;23.74;100.00;-21323.38;5034451;28;20440;-72
2021/08/06 11:14:51;;;;;;;0.77;0.60;;;;;;;23.64;100.00;-21320.78;5030783;28;20428;-74
2021/08/06 11:17:21;;;;;;;0.70;0.60;;;;;;;23.21;100.00;-21309.25;5027566;28;20440;-72
2021/08/06 11:19:50;;;;;;;0.73;0.60;;;;;;;22.93;100.00;-21301.88;5048128;28;20443;-73
2021/08/06 11:22:25;;;;;;;0.80;0.70;;;;;;;23.22;100.00;-21309.50;5036246;28;20956;-71
2021/08/06 11:24:57;;;;;;;0.80;0.70;;;;;;;22.99;100.00;-21303.53;5038531;28;20546;-71
2021/08/06 11:27:38;;;;;;;0.80;0.70;;;;;;;23.44;100.00;-21315.50;5035555;28;20429;-72
2021/08/06 11:30:10;;;;;;;0.80;0.70;;;;;;;24.01;100.00;-21330.72;5051249;28;20408;-73
2021/08/06 11:32:50;;;;;;;0.73;0.63;;;;;;;24.27;100.00;-21337.50;5052886;28;20432;-74
2021/08/06 11:35:19;;;;;;;0.80;0.60;;;;;;;24.87;100.00;-21353.38;5034889;28;20432;-73
2021/08/06 11:37:50;;;;;;;0.70;0.60;;;;;;;24.54;100.00;-21344.69;5052073;28;20454;-72
2021/08/06 11:40:21;;;;;;;0.70;0.60;;;;;;;23.92;100.00;-21328.28;5034807;28;20438;-71
2021/08/06 11:42:51;;;;;;;2.40;1.23;;;;;;;23.12;100.00;-21307.06;5040495;28;20437;-71
2021/08/06 11:45:25;;;;;;;0.80;0.60;;;;;;;22.43;100.00;-21288.56;5016694;28;20464;-72